sensor_id;sensor_type;location;lat;lon;timestamp;P1;durP1;ratioP1;P2;durP2;ratioP2
2177;SDS011;1095;50.992;6.798;2023-04-16T00:01:33;25.50;;;12.75;;
2177;SDS011;1095;50.992;6.798;2023-04-16T00:04:01;21.17;;;13.27;;
2177;SDS011;1095;50.992;6.798;2023-04-16T00:06:28;22.52;;;11.43;;
2177;SDS011;1095;50.992;6.798;2023-04-16T00:08:54;23.80;;;12.15;;
2177;SDS011;1095;50.992;6.798;2023-04-16T00:11:21;19.15;;;12.13;;
2177;SDS011;1095;50.992;6.798;2023-04-16T00:13:48;27.40;;;12.23;;
2177;SDS011;1095;50.992;6.798;2023-04-16T00:16:14;21.55;;;12.40;;
2177;SDS011;1095;50.992;6.798;2023-04-16T00:18:41;21.25;;;12.05;;
2177;SDS011;1095;50.992;6.798;2023-04-16T00:21:09;22.52;;;12.90;;
2177;SDS011;1095;50.992;6.798;2023-04-16T00:23:36;22.48;;;12.43;;
2177;SDS011;1095;50.992;6.798;2023-04-16T00:26:03;22.33;;;12.70;;
2177;SDS011;1095;50.992;6.798;2023-04-16T00:28:30;25.15;;;13.20;;
2177;SDS011;1095;50.992;6.798;2023-04-16T00:30:56;22.23;;;12.95;;
2177;SDS011;1095;50.992;6.798;2023-04-16T00:33:23;25.15;;;13.05;;
2177;SDS011;1095;50.992;6.798;2023-04-16T00:35:50;25.58;;;12.63;;
2177;SDS011;1095;50.992;6.798;2023-04-16T00:38:18;27.00;;;13.27;;
2177;SDS011;1095;50.992;6.798;2023-04-16T00:40:44;19.80;;;12.55;;
2177;SDS011;1095;50.992;6.798;2023-04-16T00:43:16;21.83;;;12.93;;
2177;SDS011;1095;50.992;6.798;2023-04-16T00:45:48;20.38;;;12.20;;
2177;SDS011;1095;50.992;6.798;2023-04-16T00:48:15;31.35;;;13.95;;
2177;SDS011;1095;50.992;6.798;2023-04-16T00:50:43;23.50;;;13.63;;
2177;SDS011;1095;50.992;6.798;2023-04-16T00:53:09;22.10;;;13.70;;
2177;SDS011;1095;50.992;6.798;2023-04-16T00:55:38;26.20;;;14.55;;
2177;SDS011;1095;50.992;6.798;2023-04-16T00:58:05;29.13;;;15.85;;
2177;SDS011;1095;50.992;6.798;2023-04-16T01:00:32;26.33;;;14.05;;
2177;SDS011;1095;50.992;6.798;2023-04-16T01:02:58;26.77;;;14.43;;
2177;SDS011;1095;50.992;6.798;2023-04-16T01:05:25;26.40;;;14.23;;
2177;SDS011;1095;50.992;6.798;2023-04-16T01:07:52;25.55;;;14.48;;
2177;SDS011;1095;50.992;6.798;2023-04-16T01:10:18;24.88;;;13.43;;
2177;SDS011;1095;50.992;6.798;2023-04-16T01:12:46;24.00;;;14.20;;
2177;SDS011;1095;50.992;6.798;2023-04-16T01:15:15;24.75;;;14.18;;
2177;SDS011;1095;50.992;6.798;2023-04-16T01:17:42;27.73;;;14.95;;
2177;SDS011;1095;50.992;6.798;2023-04-16T01:20:10;24.52;;;14.05;;
2177;SDS011;1095;50.992;6.798;2023-04-16T01:22:38;25.58;;;15.40;;
2177;SDS011;1095;50.992;6.798;2023-04-16T01:25:05;22.85;;;14.63;;
2177;SDS011;1095;50.992;6.798;2023-04-16T01:27:32;29.05;;;14.50;;
2177;SDS011;1095;50.992;6.798;2023-04-16T01:29:58;27.08;;;14.82;;
2177;SDS011;1095;50.992;6.798;2023-04-16T01:32:25;30.45;;;15.25;;
2177;SDS011;1095;50.992;6.798;2023-04-16T01:34:52;24.33;;;14.05;;
2177;SDS011;1095;50.992;6.798;2023-04-16T01:37:18;25.52;;;14.02;;
2177;SDS011;1095;50.992;6.798;2023-04-16T01:39:47;28.67;;;15.00;;
2177;SDS011;1095;50.992;6.798;2023-04-16T01:42:14;26.77;;;14.65;;
2177;SDS011;1095;50.992;6.798;2023-04-16T01:44:41;30.58;;;16.05;;
2177;SDS011;1095;50.992;6.798;2023-04-16T01:47:10;28.08;;;15.73;;
2177;SDS011;1095;50.992;6.798;2023-04-16T01:49:38;29.90;;;15.05;;
2177;SDS011;1095;50.992;6.798;2023-04-16T01:52:04;30.85;;;16.13;;
2177;SDS011;1095;50.992;6.798;2023-04-16T01:54:32;29.73;;;16.20;;
2177;SDS011;1095;50.992;6.798;2023-04-16T01:57:00;21.15;;;14.68;;
2177;SDS011;1095;50.992;6.798;2023-04-16T01:59:27;28.48;;;16.05;;
2177;SDS011;1095;50.992;6.798;2023-04-16T02:01:53;25.67;;;16.38;;
2177;SDS011;1095;50.992;6.798;2023-04-16T02:04:20;28.17;;;15.98;;
2177;SDS011;1095;50.992;6.798;2023-04-16T02:06:47;26.65;;;16.73;;
2177;SDS011;1095;50.992;6.798;2023-04-16T02:09:13;34.22;;;16.52;;
2177;SDS011;1095;50.992;6.798;2023-04-16T02:11:40;31.05;;;18.23;;
2177;SDS011;1095;50.992;6.798;2023-04-16T02:14:08;28.10;;;16.00;;
2177;SDS011;1095;50.992;6.798;2023-04-16T02:16:35;25.52;;;15.45;;
2177;SDS011;1095;50.992;6.798;2023-04-16T02:19:01;25.88;;;15.63;;
2177;SDS011;1095;50.992;6.798;2023-04-16T02:21:28;29.77;;;15.85;;
2177;SDS011;1095;50.992;6.798;2023-04-16T02:23:55;23.95;;;15.52;;
2177;SDS011;1095;50.992;6.798;2023-04-16T02:26:22;30.75;;;16.30;;
2177;SDS011;1095;50.992;6.798;2023-04-16T02:28:50;29.60;;;16.08;;
2177;SDS011;1095;50.992;6.798;2023-04-16T02:31:18;28.98;;;16.05;;
2177;SDS011;1095;50.992;6.798;2023-04-16T02:33:46;25.27;;;16.52;;
2177;SDS011;1095;50.992;6.798;2023-04-16T02:36:12;25.98;;;16.75;;
2177;SDS011;1095;50.992;6.798;2023-04-16T02:38:39;30.30;;;16.33;;
2177;SDS011;1095;50.992;6.798;2023-04-16T02:41:06;30.23;;;17.63;;
2177;SDS011;1095;50.992;6.798;2023-04-16T02:43:32;37.50;;;17.88;;
2177;SDS011;1095;50.992;6.798;2023-04-16T02:45:59;29.42;;;16.23;;
2177;SDS011;1095;50.992;6.798;2023-04-16T02:48:27;35.20;;;17.38;;
2177;SDS011;1095;50.992;6.798;2023-04-16T02:50:53;32.03;;;17.13;;
2177;SDS011;1095;50.992;6.798;2023-04-16T02:53:20;29.55;;;17.30;;
2177;SDS011;1095;50.992;6.798;2023-04-16T02:55:48;31.20;;;18.25;;
2177;SDS011;1095;50.992;6.798;2023-04-16T02:58:17;38.10;;;19.33;;
2177;SDS011;1095;50.992;6.798;2023-04-16T03:00:44;38.40;;;18.42;;
2177;SDS011;1095;50.992;6.798;2023-04-16T03:03:11;37.95;;;19.08;;
2177;SDS011;1095;50.992;6.798;2023-04-16T03:05:39;39.90;;;19.20;;
2177;SDS011;1095;50.992;6.798;2023-04-16T03:08:05;35.15;;;17.73;;
2177;SDS011;1095;50.992;6.798;2023-04-16T03:10:32;33.50;;;18.75;;
2177;SDS011;1095;50.992;6.798;2023-04-16T03:13:00;35.00;;;19.40;;
2177;SDS011;1095;50.992;6.798;2023-04-16T03:15:27;38.58;;;19.48;;
2177;SDS011;1095;50.992;6.798;2023-04-16T03:17:54;38.50;;;19.67;;
2177;SDS011;1095;50.992;6.798;2023-04-16T03:20:20;31.83;;;19.88;;
2177;SDS011;1095;50.992;6.798;2023-04-16T03:22:49;38.80;;;20.67;;
2177;SDS011;1095;50.992;6.798;2023-04-16T03:25:16;35.13;;;19.75;;
2177;SDS011;1095;50.992;6.798;2023-04-16T03:27:43;39.38;;;20.08;;
2177;SDS011;1095;50.992;6.798;2023-04-16T03:30:10;37.70;;;19.83;;
2177;SDS011;1095;50.992;6.798;2023-04-16T03:32:38;37.65;;;20.25;;
2177;SDS011;1095;50.992;6.798;2023-04-16T03:35:05;40.10;;;21.23;;
2177;SDS011;1095;50.992;6.798;2023-04-16T03:37:33;40.20;;;20.65;;
2177;SDS011;1095;50.992;6.798;2023-04-16T03:40:02;37.47;;;21.02;;
2177;SDS011;1095;50.992;6.798;2023-04-16T03:42:29;43.35;;;21.45;;
2177;SDS011;1095;50.992;6.798;2023-04-16T03:44:56;39.88;;;21.25;;
2177;SDS011;1095;50.992;6.798;2023-04-16T03:47:23;40.20;;;20.88;;
2177;SDS011;1095;50.992;6.798;2023-04-16T03:49:50;46.10;;;21.75;;
2177;SDS011;1095;50.992;6.798;2023-04-16T03:52:16;41.83;;;21.95;;
2177;SDS011;1095;50.992;6.798;2023-04-16T03:54:43;46.80;;;23.33;;
2177;SDS011;1095;50.992;6.798;2023-04-16T03:57:11;45.45;;;22.23;;
2177;SDS011;1095;50.992;6.798;2023-04-16T03:59:37;39.75;;;22.42;;
2177;SDS011;1095;50.992;6.798;2023-04-16T04:02:04;43.47;;;22.67;;
2177;SDS011;1095;50.992;6.798;2023-04-16T04:04:31;46.17;;;23.83;;
2177;SDS011;1095;50.992;6.798;2023-04-16T04:06:57;46.55;;;22.35;;
2177;SDS011;1095;50.992;6.798;2023-04-16T04:09:24;49.03;;;22.92;;
2177;SDS011;1095;50.992;6.798;2023-04-16T04:11:50;52.97;;;24.02;;
2177;SDS011;1095;50.992;6.798;2023-04-16T04:14:18;41.25;;;22.38;;
2177;SDS011;1095;50.992;6.798;2023-04-16T04:16:45;44.08;;;22.75;;
2177;SDS011;1095;50.992;6.798;2023-04-16T04:19:13;48.42;;;25.35;;
2177;SDS011;1095;50.992;6.798;2023-04-16T04:21:51;43.22;;;23.13;;
2177;SDS011;1095;50.992;6.798;2023-04-16T04:24:17;53.00;;;23.80;;
2177;SDS011;1095;50.992;6.798;2023-04-16T04:26:47;52.72;;;24.02;;
2177;SDS011;1095;50.992;6.798;2023-04-16T04:29:16;43.45;;;22.20;;
2177;SDS011;1095;50.992;6.798;2023-04-16T04:31:47;41.45;;;22.52;;
2177;SDS011;1095;50.992;6.798;2023-04-16T04:34:44;44.72;;;23.17;;
2177;SDS011;1095;50.992;6.798;2023-04-16T04:37:40;44.53;;;24.20;;
2177;SDS011;1095;50.992;6.798;2023-04-16T04:40:36;51.80;;;23.95;;
2177;SDS011;1095;50.992;6.798;2023-04-16T04:43:06;47.20;;;23.90;;
2177;SDS011;1095;50.992;6.798;2023-04-16T04:45:37;42.50;;;22.90;;
2177;SDS011;1095;50.992;6.798;2023-04-16T04:48:05;41.80;;;22.45;;
2177;SDS011;1095;50.992;6.798;2023-04-16T04:50:31;45.58;;;24.33;;
2177;SDS011;1095;50.992;6.798;2023-04-16T04:52:58;48.03;;;23.55;;
2177;SDS011;1095;50.992;6.798;2023-04-16T04:55:25;42.67;;;23.58;;
2177;SDS011;1095;50.992;6.798;2023-04-16T04:57:51;46.70;;;22.52;;
2177;SDS011;1095;50.992;6.798;2023-04-16T05:00:18;45.58;;;22.67;;
2177;SDS011;1095;50.992;6.798;2023-04-16T05:02:45;42.95;;;23.38;;
2177;SDS011;1095;50.992;6.798;2023-04-16T05:05:13;48.00;;;24.27;;
2177;SDS011;1095;50.992;6.798;2023-04-16T05:07:40;52.03;;;25.42;;
2177;SDS011;1095;50.992;6.798;2023-04-16T05:10:07;44.80;;;24.20;;
2177;SDS011;1095;50.992;6.798;2023-04-16T05:12:34;47.45;;;23.73;;
2177;SDS011;1095;50.992;6.798;2023-04-16T05:15:01;50.95;;;25.40;;
2177;SDS011;1095;50.992;6.798;2023-04-16T05:17:27;43.67;;;24.27;;
2177;SDS011;1095;50.992;6.798;2023-04-16T05:19:54;43.30;;;22.83;;
2177;SDS011;1095;50.992;6.798;2023-04-16T05:22:22;41.13;;;22.23;;
2177;SDS011;1095;50.992;6.798;2023-04-16T05:24:49;47.47;;;24.52;;
2177;SDS011;1095;50.992;6.798;2023-04-16T05:27:15;54.85;;;25.60;;
2177;SDS011;1095;50.992;6.798;2023-04-16T05:29:42;45.70;;;24.30;;
2177;SDS011;1095;50.992;6.798;2023-04-16T05:32:09;50.85;;;24.73;;
2177;SDS011;1095;50.992;6.798;2023-04-16T05:34:35;41.65;;;22.35;;
2177;SDS011;1095;50.992;6.798;2023-04-16T05:37:04;49.30;;;24.02;;
2177;SDS011;1095;50.992;6.798;2023-04-16T05:39:32;42.13;;;22.88;;
2177;SDS011;1095;50.992;6.798;2023-04-16T05:41:59;50.38;;;24.83;;
2177;SDS011;1095;50.992;6.798;2023-04-16T05:44:26;46.40;;;24.52;;
2177;SDS011;1095;50.992;6.798;2023-04-16T05:46:52;49.40;;;25.52;;
2177;SDS011;1095;50.992;6.798;2023-04-16T05:49:22;46.17;;;23.75;;
2177;SDS011;1095;50.992;6.798;2023-04-16T05:51:48;46.63;;;23.55;;
2177;SDS011;1095;50.992;6.798;2023-04-16T05:54:15;49.50;;;25.02;;
2177;SDS011;1095;50.992;6.798;2023-04-16T05:56:43;43.30;;;24.90;;
2177;SDS011;1095;50.992;6.798;2023-04-16T05:59:09;48.55;;;24.55;;
2177;SDS011;1095;50.992;6.798;2023-04-16T06:01:36;50.17;;;23.88;;
2177;SDS011;1095;50.992;6.798;2023-04-16T06:04:03;43.63;;;23.67;;
2177;SDS011;1095;50.992;6.798;2023-04-16T06:06:33;45.80;;;24.80;;
2177;SDS011;1095;50.992;6.798;2023-04-16T06:09:01;47.25;;;24.90;;
2177;SDS011;1095;50.992;6.798;2023-04-16T06:11:28;45.38;;;24.35;;
2177;SDS011;1095;50.992;6.798;2023-04-16T06:13:56;54.08;;;24.50;;
2177;SDS011;1095;50.992;6.798;2023-04-16T06:16:22;48.10;;;25.52;;
2177;SDS011;1095;50.992;6.798;2023-04-16T06:18:49;47.85;;;25.27;;
2177;SDS011;1095;50.992;6.798;2023-04-16T06:21:16;49.25;;;24.50;;
2177;SDS011;1095;50.992;6.798;2023-04-16T06:23:42;58.70;;;26.75;;
2177;SDS011;1095;50.992;6.798;2023-04-16T06:26:10;48.72;;;25.10;;
2177;SDS011;1095;50.992;6.798;2023-04-16T06:28:47;48.03;;;25.05;;
2177;SDS011;1095;50.992;6.798;2023-04-16T06:31:18;46.22;;;24.30;;
2177;SDS011;1095;50.992;6.798;2023-04-16T06:33:44;46.42;;;23.67;;
2177;SDS011;1095;50.992;6.798;2023-04-16T06:36:11;42.63;;;23.75;;
2177;SDS011;1095;50.992;6.798;2023-04-16T06:38:37;45.10;;;23.17;;
2177;SDS011;1095;50.992;6.798;2023-04-16T06:41:04;42.08;;;23.20;;
2177;SDS011;1095;50.992;6.798;2023-04-16T06:43:31;45.08;;;24.08;;
2177;SDS011;1095;50.992;6.798;2023-04-16T06:45:58;44.72;;;23.42;;
2177;SDS011;1095;50.992;6.798;2023-04-16T06:48:26;44.95;;;23.00;;
2177;SDS011;1095;50.992;6.798;2023-04-16T06:50:53;43.10;;;23.55;;
2177;SDS011;1095;50.992;6.798;2023-04-16T06:53:23;41.92;;;21.80;;
2177;SDS011;1095;50.992;6.798;2023-04-16T06:55:55;42.28;;;23.17;;
2177;SDS011;1095;50.992;6.798;2023-04-16T06:58:22;45.30;;;23.53;;
2177;SDS011;1095;50.992;6.798;2023-04-16T07:00:53;41.65;;;22.80;;
2177;SDS011;1095;50.992;6.798;2023-04-16T07:03:31;42.17;;;22.38;;
2177;SDS011;1095;50.992;6.798;2023-04-16T07:06:01;38.65;;;22.30;;
2177;SDS011;1095;50.992;6.798;2023-04-16T07:12:05;41.00;;;22.85;;
2177;SDS011;1095;50.992;6.798;2023-04-16T07:14:42;40.47;;;22.38;;
2177;SDS011;1095;50.992;6.798;2023-04-16T07:17:55;39.70;;;22.38;;
2177;SDS011;1095;50.992;6.798;2023-04-16T07:24:13;40.22;;;20.90;;
2177;SDS011;1095;50.992;6.798;2023-04-16T07:29:55;38.58;;;21.80;;
2177;SDS011;1095;50.992;6.798;2023-04-16T07:32:27;35.50;;;20.80;;
2177;SDS011;1095;50.992;6.798;2023-04-16T07:34:54;36.90;;;20.55;;
2177;SDS011;1095;50.992;6.798;2023-04-16T07:37:24;37.05;;;20.85;;
2177;SDS011;1095;50.992;6.798;2023-04-16T07:39:52;40.67;;;22.02;;
2177;SDS011;1095;50.992;6.798;2023-04-16T07:42:21;48.05;;;22.83;;
2177;SDS011;1095;50.992;6.798;2023-04-16T07:44:51;39.45;;;22.65;;
2177;SDS011;1095;50.992;6.798;2023-04-16T07:47:20;43.72;;;23.77;;
2177;SDS011;1095;50.992;6.798;2023-04-16T07:49:50;47.58;;;23.85;;
2177;SDS011;1095;50.992;6.798;2023-04-16T07:52:20;46.58;;;24.13;;
2177;SDS011;1095;50.992;6.798;2023-04-16T07:54:49;49.45;;;26.35;;
2177;SDS011;1095;50.992;6.798;2023-04-16T07:57:17;51.70;;;25.80;;
2177;SDS011;1095;50.992;6.798;2023-04-16T07:59:45;63.05;;;29.30;;
2177;SDS011;1095;50.992;6.798;2023-04-16T08:02:15;64.45;;;31.80;;
2177;SDS011;1095;50.992;6.798;2023-04-16T08:04:41;67.95;;;35.17;;
2177;SDS011;1095;50.992;6.798;2023-04-16T08:07:08;70.07;;;35.90;;
2177;SDS011;1095;50.992;6.798;2023-04-16T08:09:35;68.85;;;35.10;;
2177;SDS011;1095;50.992;6.798;2023-04-16T08:12:11;73.03;;;36.20;;
2177;SDS011;1095;50.992;6.798;2023-04-16T08:14:39;71.65;;;38.08;;
2177;SDS011;1095;50.992;6.798;2023-04-16T08:17:06;82.10;;;40.80;;
2177;SDS011;1095;50.992;6.798;2023-04-16T08:19:35;76.47;;;40.35;;
2177;SDS011;1095;50.992;6.798;2023-04-16T08:22:02;78.13;;;40.30;;
2177;SDS011;1095;50.992;6.798;2023-04-16T08:24:28;75.75;;;40.53;;
2177;SDS011;1095;50.992;6.798;2023-04-16T08:26:55;74.07;;;41.70;;
2177;SDS011;1095;50.992;6.798;2023-04-16T08:29:23;74.45;;;39.25;;
2177;SDS011;1095;50.992;6.798;2023-04-16T08:31:54;67.18;;;38.45;;
2177;SDS011;1095;50.992;6.798;2023-04-16T08:34:21;65.20;;;37.97;;
2177;SDS011;1095;50.992;6.798;2023-04-16T08:36:48;75.18;;;40.17;;
2177;SDS011;1095;50.992;6.798;2023-04-16T08:39:15;79.05;;;42.33;;
2177;SDS011;1095;50.992;6.798;2023-04-16T08:41:43;87.00;;;48.22;;
2177;SDS011;1095;50.992;6.798;2023-04-16T08:44:13;91.35;;;48.85;;
2177;SDS011;1095;50.992;6.798;2023-04-16T08:47:06;83.72;;;48.60;;
2177;SDS011;1095;50.992;6.798;2023-04-16T08:49:42;77.03;;;44.15;;
2177;SDS011;1095;50.992;6.798;2023-04-16T08:52:12;76.25;;;44.72;;
2177;SDS011;1095;50.992;6.798;2023-04-16T08:54:42;77.13;;;44.15;;
2177;SDS011;1095;50.992;6.798;2023-04-16T08:57:17;69.32;;;41.75;;
2177;SDS011;1095;50.992;6.798;2023-04-16T08:59:45;62.25;;;40.67;;
2177;SDS011;1095;50.992;6.798;2023-04-16T09:02:13;61.08;;;36.38;;
2177;SDS011;1095;50.992;6.798;2023-04-16T09:04:40;58.58;;;36.53;;
2177;SDS011;1095;50.992;6.798;2023-04-16T09:07:08;58.78;;;38.30;;
2177;SDS011;1095;50.992;6.798;2023-04-16T09:09:36;57.20;;;35.28;;
2177;SDS011;1095;50.992;6.798;2023-04-16T09:12:04;53.80;;;34.25;;
2177;SDS011;1095;50.992;6.798;2023-04-16T09:17:42;52.70;;;31.17;;
2177;SDS011;1095;50.992;6.798;2023-04-16T09:20:09;45.35;;;31.33;;
2177;SDS011;1095;50.992;6.798;2023-04-16T09:22:36;51.17;;;32.92;;
2177;SDS011;1095;50.992;6.798;2023-04-16T09:25:06;48.20;;;33.15;;
2177;SDS011;1095;50.992;6.798;2023-04-16T09:27:37;47.20;;;32.28;;
2177;SDS011;1095;50.992;6.798;2023-04-16T09:30:17;46.88;;;31.15;;
2177;SDS011;1095;50.992;6.798;2023-04-16T09:32:47;44.28;;;31.05;;
2177;SDS011;1095;50.992;6.798;2023-04-16T09:35:15;45.00;;;31.17;;
2177;SDS011;1095;50.992;6.798;2023-04-16T09:37:53;42.65;;;28.98;;
2177;SDS011;1095;50.992;6.798;2023-04-16T09:40:27;44.67;;;30.13;;
2177;SDS011;1095;50.992;6.798;2023-04-16T09:42:58;44.75;;;28.73;;
2177;SDS011;1095;50.992;6.798;2023-04-16T09:45:26;38.17;;;26.70;;
2177;SDS011;1095;50.992;6.798;2023-04-16T09:48:02;38.33;;;25.65;;
2177;SDS011;1095;50.992;6.798;2023-04-16T09:50:33;39.13;;;26.63;;
2177;SDS011;1095;50.992;6.798;2023-04-16T09:53:02;37.43;;;26.60;;
2177;SDS011;1095;50.992;6.798;2023-04-16T09:55:31;36.47;;;26.40;;
2177;SDS011;1095;50.992;6.798;2023-04-16T09:58:06;39.10;;;28.13;;
2177;SDS011;1095;50.992;6.798;2023-04-16T10:00:32;46.05;;;32.28;;
2177;SDS011;1095;50.992;6.798;2023-04-16T10:03:05;47.33;;;32.72;;
2177;SDS011;1095;50.992;6.798;2023-04-16T10:05:32;46.20;;;32.20;;
2177;SDS011;1095;50.992;6.798;2023-04-16T10:07:59;47.85;;;32.78;;
2177;SDS011;1095;50.992;6.798;2023-04-16T10:10:26;47.65;;;33.60;;
2177;SDS011;1095;50.992;6.798;2023-04-16T10:12:58;50.53;;;34.08;;
2177;SDS011;1095;50.992;6.798;2023-04-16T10:15:35;53.45;;;35.13;;
2177;SDS011;1095;50.992;6.798;2023-04-16T10:18:05;48.95;;;32.80;;
2177;SDS011;1095;50.992;6.798;2023-04-16T10:20:44;45.33;;;32.40;;
2177;SDS011;1095;50.992;6.798;2023-04-16T10:23:53;45.78;;;30.95;;
2177;SDS011;1095;50.992;6.798;2023-04-16T11:51:58;38.75;;;31.08;;
2177;SDS011;1095;50.992;6.798;2023-04-16T11:54:48;38.40;;;30.48;;
2177;SDS011;1095;50.992;6.798;2023-04-16T11:57:50;41.63;;;31.40;;
2177;SDS011;1095;50.992;6.798;2023-04-16T12:00:47;36.67;;;30.73;;
2177;SDS011;1095;50.992;6.798;2023-04-16T12:03:59;38.25;;;29.42;;
2177;SDS011;1095;50.992;6.798;2023-04-16T12:13:28;42.08;;;29.10;;
2177;SDS011;1095;50.992;6.798;2023-04-16T14:42:40;25.27;;;20.50;;
2177;SDS011;1095;50.992;6.798;2023-04-16T14:45:07;23.63;;;20.35;;
2177;SDS011;1095;50.992;6.798;2023-04-16T14:47:35;24.27;;;19.30;;
2177;SDS011;1095;50.992;6.798;2023-04-16T14:50:09;26.52;;;20.95;;
2177;SDS011;1095;50.992;6.798;2023-04-16T14:52:37;26.73;;;20.63;;
2177;SDS011;1095;50.992;6.798;2023-04-16T14:55:04;26.25;;;20.80;;
2177;SDS011;1095;50.992;6.798;2023-04-16T14:57:31;24.05;;;20.02;;
2177;SDS011;1095;50.992;6.798;2023-04-16T14:59:59;24.73;;;19.88;;
2177;SDS011;1095;50.992;6.798;2023-04-16T15:02:26;23.67;;;18.67;;
2177;SDS011;1095;50.992;6.798;2023-04-16T15:04:53;23.48;;;19.17;;
2177;SDS011;1095;50.992;6.798;2023-04-16T15:07:20;23.08;;;17.20;;
2177;SDS011;1095;50.992;6.798;2023-04-16T15:09:47;27.17;;;17.13;;
2177;SDS011;1095;50.992;6.798;2023-04-16T15:12:26;24.55;;;17.92;;
2177;SDS011;1095;50.992;6.798;2023-04-16T15:15:11;21.63;;;17.90;;
2177;SDS011;1095;50.992;6.798;2023-04-16T15:17:38;24.92;;;18.08;;
2177;SDS011;1095;50.992;6.798;2023-04-16T15:20:05;24.75;;;17.92;;
2177;SDS011;1095;50.992;6.798;2023-04-16T15:22:33;22.60;;;18.42;;
2177;SDS011;1095;50.992;6.798;2023-04-16T15:25:00;23.15;;;17.38;;
2177;SDS011;1095;50.992;6.798;2023-04-16T15:27:27;21.42;;;17.77;;
2177;SDS011;1095;50.992;6.798;2023-04-16T15:29:54;23.58;;;18.63;;
2177;SDS011;1095;50.992;6.798;2023-04-16T15:32:22;21.73;;;17.83;;
2177;SDS011;1095;50.992;6.798;2023-04-16T15:34:48;22.85;;;18.48;;
2177;SDS011;1095;50.992;6.798;2023-04-16T15:37:18;25.55;;;18.63;;
2177;SDS011;1095;50.992;6.798;2023-04-16T15:39:45;21.73;;;18.10;;
2177;SDS011;1095;50.992;6.798;2023-04-16T15:42:11;20.30;;;17.20;;
2177;SDS011;1095;50.992;6.798;2023-04-16T15:44:38;21.70;;;17.77;;
2177;SDS011;1095;50.992;6.798;2023-04-16T15:47:05;35.67;;;17.45;;
2177;SDS011;1095;50.992;6.798;2023-04-16T15:49:34;21.08;;;17.02;;
2177;SDS011;1095;50.992;6.798;2023-04-16T15:52:00;21.55;;;18.70;;
2177;SDS011;1095;50.992;6.798;2023-04-16T15:54:27;20.13;;;16.65;;
2177;SDS011;1095;50.992;6.798;2023-04-16T15:56:54;22.60;;;18.45;;
2177;SDS011;1095;50.992;6.798;2023-04-16T15:59:22;22.70;;;17.52;;
2177;SDS011;1095;50.992;6.798;2023-04-16T16:01:49;21.30;;;17.13;;
2177;SDS011;1095;50.992;6.798;2023-04-16T16:04:16;23.73;;;17.45;;
2177;SDS011;1095;50.992;6.798;2023-04-16T16:06:44;21.55;;;16.60;;
2177;SDS011;1095;50.992;6.798;2023-04-16T16:09:10;23.00;;;17.70;;
2177;SDS011;1095;50.992;6.798;2023-04-16T16:11:37;20.52;;;16.85;;
2177;SDS011;1095;50.992;6.798;2023-04-16T16:14:06;22.63;;;17.40;;
2177;SDS011;1095;50.992;6.798;2023-04-16T16:16:33;23.30;;;18.67;;
2177;SDS011;1095;50.992;6.798;2023-04-16T16:19:00;27.65;;;19.67;;
2177;SDS011;1095;50.992;6.798;2023-04-16T16:21:28;26.70;;;20.20;;
2177;SDS011;1095;50.992;6.798;2023-04-16T16:23:56;27.45;;;19.75;;
2177;SDS011;1095;50.992;6.798;2023-04-16T16:26:23;25.40;;;19.20;;
2177;SDS011;1095;50.992;6.798;2023-04-16T16:28:50;28.67;;;20.15;;
2177;SDS011;1095;50.992;6.798;2023-04-16T16:31:16;25.10;;;18.98;;
2177;SDS011;1095;50.992;6.798;2023-04-16T16:33:43;25.63;;;19.50;;
2177;SDS011;1095;50.992;6.798;2023-04-16T16:36:10;26.45;;;20.08;;
2177;SDS011;1095;50.992;6.798;2023-04-16T16:38:37;26.00;;;20.45;;
2177;SDS011;1095;50.992;6.798;2023-04-16T16:41:06;27.90;;;21.98;;
2177;SDS011;1095;50.992;6.798;2023-04-16T16:43:33;29.15;;;21.40;;
2177;SDS011;1095;50.992;6.798;2023-04-16T16:46:03;27.58;;;20.67;;
2177;SDS011;1095;50.992;6.798;2023-04-16T16:50:50;24.42;;;20.45;;
2177;SDS011;1095;50.992;6.798;2023-04-16T17:01:56;37.72;;;24.00;;
2177;SDS011;1095;50.992;6.798;2023-04-16T17:04:22;36.90;;;25.95;;
2177;SDS011;1095;50.992;6.798;2023-04-16T17:06:49;39.85;;;24.48;;
2177;SDS011;1095;50.992;6.798;2023-04-16T17:09:16;36.22;;;24.70;;
2177;SDS011;1095;50.992;6.798;2023-04-16T17:11:43;43.95;;;26.13;;
2177;SDS011;1095;50.992;6.798;2023-04-16T17:14:10;41.25;;;26.08;;
2177;SDS011;1095;50.992;6.798;2023-04-16T17:16:37;37.28;;;25.45;;
2177;SDS011;1095;50.992;6.798;2023-04-16T17:19:05;37.25;;;26.05;;
2177;SDS011;1095;50.992;6.798;2023-04-16T17:21:32;41.63;;;27.02;;
2177;SDS011;1095;50.992;6.798;2023-04-16T17:23:59;35.58;;;25.90;;
2177;SDS011;1095;50.992;6.798;2023-04-16T17:26:25;35.70;;;25.27;;
2177;SDS011;1095;50.992;6.798;2023-04-16T17:28:52;34.40;;;25.05;;
2177;SDS011;1095;50.992;6.798;2023-04-16T17:31:20;38.97;;;25.88;;
2177;SDS011;1095;50.992;6.798;2023-04-16T17:33:48;35.72;;;25.45;;
2177;SDS011;1095;50.992;6.798;2023-04-16T17:36:16;39.67;;;26.60;;
2177;SDS011;1095;50.992;6.798;2023-04-16T17:38:43;45.53;;;27.45;;
2177;SDS011;1095;50.992;6.798;2023-04-16T17:41:10;39.83;;;27.45;;
2177;SDS011;1095;50.992;6.798;2023-04-16T17:43:37;41.83;;;28.42;;
2177;SDS011;1095;50.992;6.798;2023-04-16T17:46:03;42.83;;;28.50;;
2177;SDS011;1095;50.992;6.798;2023-04-16T17:48:30;46.33;;;29.35;;
2177;SDS011;1095;50.992;6.798;2023-04-16T17:50:57;39.35;;;27.00;;
2177;SDS011;1095;50.992;6.798;2023-04-16T17:53:25;45.05;;;29.98;;
2177;SDS011;1095;50.992;6.798;2023-04-16T17:55:52;47.20;;;29.98;;
2177;SDS011;1095;50.992;6.798;2023-04-16T17:58:19;43.83;;;28.55;;
2177;SDS011;1095;50.992;6.798;2023-04-16T18:00:45;40.75;;;28.55;;
2177;SDS011;1095;50.992;6.798;2023-04-16T18:03:12;42.47;;;28.55;;
2177;SDS011;1095;50.992;6.798;2023-04-16T18:05:38;42.47;;;27.77;;
2177;SDS011;1095;50.992;6.798;2023-04-16T18:08:05;38.83;;;26.77;;
2177;SDS011;1095;50.992;6.798;2023-04-16T18:10:33;42.70;;;27.98;;
2177;SDS011;1095;50.992;6.798;2023-04-16T18:13:03;44.88;;;27.75;;
2177;SDS011;1095;50.992;6.798;2023-04-16T18:15:29;39.00;;;28.15;;
2177;SDS011;1095;50.992;6.798;2023-04-16T18:17:56;43.90;;;28.33;;
2177;SDS011;1095;50.992;6.798;2023-04-16T18:20:23;44.28;;;28.60;;
2177;SDS011;1095;50.992;6.798;2023-04-16T18:22:50;40.80;;;27.58;;
2177;SDS011;1095;50.992;6.798;2023-04-16T18:25:16;43.75;;;28.30;;
2177;SDS011;1095;50.992;6.798;2023-04-16T18:27:44;42.20;;;29.52;;
2177;SDS011;1095;50.992;6.798;2023-04-16T18:30:11;47.15;;;28.25;;
2177;SDS011;1095;50.992;6.798;2023-04-16T18:32:38;43.47;;;30.50;;
2177;SDS011;1095;50.992;6.798;2023-04-16T18:35:05;41.63;;;28.48;;
2177;SDS011;1095;50.992;6.798;2023-04-16T18:37:33;41.92;;;29.05;;
2177;SDS011;1095;50.992;6.798;2023-04-16T18:39:59;42.92;;;27.75;;
2177;SDS011;1095;50.992;6.798;2023-04-16T18:42:26;36.10;;;27.42;;
2177;SDS011;1095;50.992;6.798;2023-04-16T18:44:54;42.85;;;28.65;;
2177;SDS011;1095;50.992;6.798;2023-04-16T18:47:21;42.78;;;28.85;;
2177;SDS011;1095;50.992;6.798;2023-04-16T18:49:48;43.90;;;28.98;;
2177;SDS011;1095;50.992;6.798;2023-04-16T18:52:16;44.67;;;30.23;;
2177;SDS011;1095;50.992;6.798;2023-04-16T18:54:43;41.45;;;28.63;;
2177;SDS011;1095;50.992;6.798;2023-04-16T18:57:09;47.83;;;28.35;;
2177;SDS011;1095;50.992;6.798;2023-04-16T18:59:36;45.03;;;28.45;;
2177;SDS011;1095;50.992;6.798;2023-04-16T19:02:04;39.90;;;28.55;;
2177;SDS011;1095;50.992;6.798;2023-04-16T19:04:32;40.55;;;28.20;;
2177;SDS011;1095;50.992;6.798;2023-04-16T19:06:58;46.00;;;28.88;;
2177;SDS011;1095;50.992;6.798;2023-04-16T19:09:25;38.47;;;28.98;;
2177;SDS011;1095;50.992;6.798;2023-04-16T19:11:52;44.20;;;29.08;;
2177;SDS011;1095;50.992;6.798;2023-04-16T19:14:18;52.17;;;33.63;;
2177;SDS011;1095;50.992;6.798;2023-04-16T19:16:45;44.55;;;29.70;;
2177;SDS011;1095;50.992;6.798;2023-04-16T19:19:13;46.28;;;29.33;;
2177;SDS011;1095;50.992;6.798;2023-04-16T19:21:42;43.90;;;29.55;;